Time;durP1;ratioP1;P1;durP2;ratioP2;P2;SDS_P1;SDS_P2;PMS_P1;PMS_P2;Temp;Humidity;BMP_temperature;BMP_pressure;BME280_temperature;BME280_humidity;BME280_pressure;Samples;Min_cycle;Max_cycle;Signal;HPM_P1;HPM_P2
2021/03/04 00:01:39;;;;;;;50.30;11.03;;;;;;;-3.18;92.19;101526.34;1749555;82;21038;-42
2021/03/04 00:04:07;;;;;;;16.52;7.83;;;;;;;-3.17;92.21;101521.75;1749526;82;20971;-45
2021/03/04 00:06:35;;;;;;;26.73;8.98;;;;;;;-3.17;92.23;101520.48;1749575;82;21003;-46
2021/03/04 00:09:05;;;;;;;20.90;8.73;;;;;;;-3.20;92.18;101511.87;1749594;82;21024;-42
2021/03/04 00:11:33;;;;;;;26.42;10.18;;;;;;;-3.26;92.12;101507.74;1749619;82;21381;-43
2021/03/04 00:14:01;;;;;;;21.12;8.95;;;;;;;-3.30;92.11;101514.66;1749520;82;21058;-44
2021/03/04 00:16:29;;;;;;;23.85;8.78;;;;;;;-3.34;92.16;101514.91;1749592;82;20967;-42
2021/03/04 00:18:57;;;;;;;36.55;9.08;;;;;;;-3.34;92.30;101512.38;1749597;82;21027;-42
2021/03/04 00:21:26;;;;;;;47.70;9.08;;;;;;;-3.34;92.35;101513.64;1749647;82;21079;-43
2021/03/04 00:23:53;;;;;;;64.12;10.05;;;;;;;-3.38;92.35;101502.88;1749615;82;21394;-45
2021/03/04 00:26:21;;;;;;;98.22;12.20;;;;;;;-3.36;92.51;101500.03;1749498;82;21066;-43
2021/03/04 00:28:49;;;;;;;87.97;12.90;;;;;;;-3.36;92.51;101497.08;1749648;82;20967;-45
2021/03/04 00:31:17;;;;;;;79.17;9.35;;;;;;;-3.40;92.45;101500.23;1749572;82;21022;-44
2021/03/04 00:33:46;;;;;;;97.62;11.83;;;;;;;-3.39;92.52;101492.27;1749701;82;21034;-42
2021/03/04 00:36:14;;;;;;;110.40;12.60;;;;;;;-3.39;92.57;101487.20;1749604;82;21210;-42
2021/03/04 00:38:41;;;;;;;71.47;10.68;;;;;;;-3.41;92.53;101484.57;1749565;82;21074;-42
2021/03/04 00:41:10;;;;;;;102.70;11.78;;;;;;;-3.41;92.59;101473.55;1749558;80;20966;-42
2021/03/04 00:43:38;;;;;;;68.52;11.38;;;;;;;-3.43;92.58;101467.16;1749552;82;21026;-41
2021/03/04 00:46:06;;;;;;;44.83;11.05;;;;;;;-3.47;92.52;101474.97;1749595;82;21014;-42
2021/03/04 00:48:34;;;;;;;20.02;7.92;;;;;;;-3.47;92.61;101460.19;1749558;82;21392;-42
2021/03/04 00:51:02;;;;;;;16.97;8.55;;;;;;;-3.40;92.89;101461.41;1749590;82;21030;-43
2021/03/04 00:53:30;;;;;;;14.78;9.13;;;;;;;-3.25;93.19;101462.22;1749635;82;20907;-43
2021/03/04 00:55:58;;;;;;;15.50;8.53;;;;;;;-3.19;93.22;101451.14;1749593;82;20971;-44
2021/03/04 00:58:26;;;;;;;18.35;9.35;;;;;;;-3.12;93.21;101448.55;1749560;82;21228;-42
2021/03/04 01:00:54;;;;;;;20.20;9.58;;;;;;;-3.05;93.17;101449.75;1749639;82;21213;-44
2021/03/04 01:03:23;;;;;;;15.30;9.08;;;;;;;-3.01;93.06;101440.25;1749599;82;21600;-42
2021/03/04 01:05:51;;;;;;;21.57;10.65;;;;;;;-3.01;93.01;101440.25;1749562;82;21014;-44
2021/03/04 01:08:19;;;;;;;22.32;10.40;;;;;;;-2.95;93.14;101436.77;1749679;82;21042;-45
2021/03/04 01:10:49;;;;;;;22.75;9.98;;;;;;;-2.84;93.18;101428.45;1749659;82;20955;-43
2021/03/04 01:13:17;;;;;;;16.42;10.35;;;;;;;-2.80;93.08;101426.55;1749552;82;21214;-45
2021/03/04 01:15:46;;;;;;;18.98;9.93;;;;;;;-2.76;93.02;101427.59;1749494;82;21042;-45
2021/03/04 01:18:16;;;;;;;16.55;10.20;;;;;;;-2.71;92.96;101427.84;1747179;82;21066;-47
2021/03/04 01:20:44;;;;;;;21.20;11.12;;;;;;;-2.67;92.93;101424.25;1749557;82;20939;-42
2021/03/04 01:23:12;;;;;;;18.80;10.93;;;;;;;-2.65;92.86;101419.27;1749631;82;21057;-44
2021/03/04 01:25:40;;;;;;;19.30;10.68;;;;;;;-2.62;92.77;101415.24;1749597;82;20974;-43
2021/03/04 01:28:08;;;;;;;22.70;11.68;;;;;;;-2.61;92.69;101416.98;1749573;82;20963;-44
2021/03/04 01:30:37;;;;;;;20.02;11.73;;;;;;;-2.58;92.68;101414.98;1749567;82;21018;-44
2021/03/04 01:33:07;;;;;;;24.15;11.33;;;;;;;-2.60;92.58;101404.78;1749225;81;21039;-45
2021/03/04 01:35:35;;;;;;;22.70;11.90;;;;;;;-2.58;92.58;101401.03;1749526;82;21015;-42
2021/03/04 01:38:03;;;;;;;25.60;12.55;;;;;;;-2.59;92.43;101398.02;1749543;82;21223;-45
2021/03/04 01:40:31;;;;;;;26.02;14.18;;;;;;;-2.64;92.28;101391.48;1749522;82;20967;-45
2021/03/04 01:43:00;;;;;;;36.30;13.38;;;;;;;-2.69;92.20;101390.77;1749580;80;20994;-43
2021/03/04 01:45:27;;;;;;;41.63;12.82;;;;;;;-2.77;92.13;101390.37;1749443;82;20955;-43
2021/03/04 01:47:56;;;;;;;38.33;14.35;;;;;;;-2.85;92.09;101389.97;1749605;82;21089;-43
2021/03/04 01:50:26;;;;;;;43.42;13.13;;;;;;;-2.91;92.07;101389.25;1749561;82;21364;-44
2021/03/04 01:52:54;;;;;;;29.20;11.33;;;;;;;-2.95;92.17;101392.83;1749466;82;21023;-45
2021/03/04 01:55:22;;;;;;;23.05;12.55;;;;;;;-2.99;92.21;101394.33;1749522;82;21042;-43
2021/03/04 01:57:50;;;;;;;28.83;12.55;;;;;;;-3.03;92.19;101389.89;1749546;82;21026;-44
2021/03/04 02:00:20;;;;;;;20.10;10.78;;;;;;;-3.06;92.28;101387.20;1749532;82;21078;-45
2021/03/04 02:02:48;;;;;;;19.85;11.45;;;;;;;-3.07;92.40;101383.78;1749504;82;22318;-43
2021/03/04 02:05:17;;;;;;;20.08;11.63;;;;;;;-3.07;92.48;101379.13;1749418;82;20987;-42
2021/03/04 02:08:15;;;;;;;23.00;12.03;;;;;;;-3.07;92.52;101374.06;1749611;82;21626;-44
2021/03/04 02:10:51;;;;;;;20.75;11.78;;;;;;;-3.10;92.46;101371.38;1749527;82;20991;-44
2021/03/04 02:13:29;;;;;;;28.80;12.65;;;;;;;-3.12;92.50;101370.42;1749039;82;21006;-42
2021/03/04 02:16:23;;;;;;;21.33;11.93;;;;;;;-3.13;92.56;101368.69;1749545;82;21446;-42
2021/03/04 02:18:59;;;;;;;20.37;11.83;;;;;;;-3.08;92.75;101359.66;1748956;82;21053;-44
2021/03/04 02:21:47;;;;;;;21.00;12.43;;;;;;;-3.04;92.79;101357.75;1749600;82;20908;-43
2021/03/04 02:24:28;;;;;;;24.57;11.73;;;;;;;-2.98;92.90;101353.40;1749523;82;21018;-44
2021/03/04 02:27:07;;;;;;;22.35;11.38;;;;;;;-2.94;92.84;101348.95;1747019;82;20931;-43
2021/03/04 02:29:51;;;;;;;20.97;10.82;;;;;;;-2.91;92.82;101343.62;1749585;82;21201;-43
2021/03/04 02:32:23;;;;;;;17.73;10.32;;;;;;;-2.91;92.73;101337.30;1749510;82;21066;-43
2021/03/04 02:34:56;;;;;;;18.48;9.75;;;;;;;-2.89;92.74;101334.47;1749525;82;21165;-44
2021/03/04 02:37:24;;;;;;;22.48;10.28;;;;;;;-2.86;92.68;101332.88;1749522;82;21602;-43
2021/03/04 02:39:53;;;;;;;19.67;9.13;;;;;;;-2.84;92.73;101323.28;1749529;82;21046;-44
2021/03/04 02:42:22;;;;;;;18.90;9.55;;;;;;;-2.78;92.74;101322.72;1749530;80;21385;-43
2021/03/04 02:44:53;;;;;;;13.20;8.10;;;;;;;-2.75;92.65;101324.14;1749378;82;21034;-44
2021/03/04 02:47:21;;;;;;;15.95;9.00;;;;;;;-2.70;92.63;101321.84;1743896;82;21062;-44
2021/03/04 02:49:50;;;;;;;11.35;7.55;;;;;;;-2.70;92.51;101316.77;1743910;82;21165;-42
2021/03/04 02:52:18;;;;;;;10.93;7.87;;;;;;;-2.65;92.57;101309.88;1722125;82;20908;-43
2021/03/04 02:54:47;;;;;;;14.63;7.72;;;;;;;-2.60;92.52;101302.09;1743875;82;21306;-42
2021/03/04 02:57:14;;;;;;;20.50;8.75;;;;;;;-2.53;92.40;101299.84;1743923;82;21022;-44
2021/03/04 02:59:43;;;;;;;19.87;8.23;;;;;;;-2.50;92.32;101288.58;1721880;82;21038;-44
2021/03/04 03:02:11;;;;;;;16.90;8.63;;;;;;;-2.43;92.22;101283.41;1743908;82;21327;-42
2021/03/04 03:04:40;;;;;;;12.15;8.03;;;;;;;-2.43;91.96;101276.66;1743968;82;20991;-43
2021/03/04 03:07:08;;;;;;;17.27;9.28;;;;;;;-2.44;91.86;101264.78;1723223;82;21355;-42
2021/03/04 03:09:38;;;;;;;13.90;8.18;;;;;;;-2.43;91.87;101262.71;1744047;82;21018;-45
2021/03/04 03:12:08;;;;;;;14.60;8.43;;;;;;;-2.40;91.85;101264.16;1744126;82;21010;-45
2021/03/04 03:14:36;;;;;;;12.73;8.25;;;;;;;-2.40;91.71;101266.69;1744043;82;20975;-45
2021/03/04 03:17:06;;;;;;;12.23;7.90;;;;;;;-2.37;91.75;101256.69;1744154;82;20987;-42
2021/03/04 03:19:36;;;;;;;21.80;8.63;;;;;;;-2.31;91.75;101253.16;1742675;82;22542;-43
2021/03/04 03:22:06;;;;;;;15.85;7.42;;;;;;;-2.25;91.63;101249.16;1744083;82;20935;-42
2021/03/04 03:24:34;;;;;;;19.17;8.15;;;;;;;-2.22;91.49;101246.77;1744041;82;21010;-45
2021/03/04 03:27:02;;;;;;;15.03;9.13;;;;;;;-2.22;91.38;101242.97;1744033;82;20963;-44
2021/03/04 03:29:30;;;;;;;16.93;8.28;;;;;;;-2.24;91.27;101243.30;1744103;82;21047;-44
2021/03/04 03:31:57;;;;;;;15.35;7.85;;;;;;;-2.25;91.23;101242.44;1744127;82;21214;-41
2021/03/04 03:34:25;;;;;;;15.50;8.03;;;;;;;-2.23;91.17;101239.58;1722702;82;20956;-42
2021/03/04 03:36:55;;;;;;;13.08;8.53;;;;;;;-2.25;91.19;101239.91;1744091;82;22117;-44
2021/03/04 03:39:22;;;;;;;17.07;8.73;;;;;;;-2.21;91.15;101235.44;1744067;82;21022;-44
2021/03/04 03:41:50;;;;;;;15.90;8.75;;;;;;;-2.19;91.02;101236.77;1670313;82;20929;-44
2021/03/04 03:44:18;;;;;;;15.43;9.43;;;;;;;-2.19;90.91;101228.77;1744026;82;21216;-44
2021/03/04 03:46:46;;;;;;;13.10;7.92;;;;;;;-2.13;90.91;101223.11;1743972;82;20987;-43
2021/03/04 03:49:15;;;;;;;14.73;7.85;;;;;;;-2.06;90.73;101217.51;1744099;82;21023;-43
2021/03/04 03:51:43;;;;;;;15.15;8.73;;;;;;;-2.00;90.47;101208.42;1699876;82;21026;-44
2021/03/04 03:54:12;;;;;;;19.48;9.60;;;;;;;-2.02;90.21;101205.42;1744026;82;21006;-43
2021/03/04 03:56:40;;;;;;;17.05;8.13;;;;;;;-1.99;90.15;101200.89;1744165;82;21443;-43
2021/03/04 03:59:08;;;;;;;16.52;9.23;;;;;;;-1.95;90.04;101208.23;1743992;82;20991;-45
2021/03/04 04:01:36;;;;;;;11.55;8.13;;;;;;;-1.94;89.89;101202.35;1699477;82;21023;-46
2021/03/04 04:04:05;;;;;;;19.12;8.33;;;;;;;-1.89;89.91;101197.10;1723299;82;21023;-42
2021/03/04 04:06:35;;;;;;;17.12;8.65;;;;;;;-1.84;89.72;101196.91;1744031;82;20943;-43
2021/03/04 04:09:04;;;;;;;17.73;9.20;;;;;;;-1.81;89.67;101190.69;1744023;82;21218;-41
2021/03/04 04:11:31;;;;;;;11.03;8.13;;;;;;;-1.76;89.49;101188.36;1744093;82;21097;-42
2021/03/04 04:13:59;;;;;;;15.78;8.50;;;;;;;-1.75;89.22;101184.60;1744072;82;20962;-44
2021/03/04 04:16:27;;;;;;;12.68;8.38;;;;;;;-1.68;89.14;101170.89;1722950;82;20975;-43
2021/03/04 04:18:56;;;;;;;13.53;8.58;;;;;;;-1.66;88.99;101170.17;1744157;82;20959;-45
2021/03/04 04:21:24;;;;;;;24.32;9.58;;;;;;;-1.64;88.88;101166.41;1722491;82;21209;-42
2021/03/04 04:23:52;;;;;;;14.33;8.15;;;;;;;-1.62;88.68;101157.22;1744050;82;21642;-46
2021/03/04 04:26:20;;;;;;;16.07;9.20;;;;;;;-1.59;88.57;101159.47;1744011;82;20951;-44
2021/03/04 04:28:48;;;;;;;16.17;8.78;;;;;;;-1.59;88.45;101147.19;1744076;82;21600;-44
2021/03/04 04:31:16;;;;;;;12.58;8.45;;;;;;;-1.60;88.33;101141.64;1744033;82;20947;-45
2021/03/04 04:33:44;;;;;;;13.95;7.92;;;;;;;-1.61;88.29;101135.68;1744038;82;21210;-43
2021/03/04 04:36:13;;;;;;;17.25;8.85;;;;;;;-1.64;88.27;101130.47;1744021;82;21126;-43
2021/03/04 04:38:41;;;;;;;13.35;8.48;;;;;;;-1.63;88.25;101132.63;1744037;82;20932;-44
2021/03/04 04:41:09;;;;;;;14.15;7.83;;;;;;;-1.61;88.16;101132.29;1744041;80;20955;-45
2021/03/04 04:43:37;;;;;;;14.05;8.65;;;;;;;-1.58;88.16;101126.06;1744075;82;20968;-45
2021/03/04 04:46:05;;;;;;;16.75;9.10;;;;;;;-1.57;88.12;101120.56;1745990;81;21214;-44
2021/03/04 04:48:33;;;;;;;16.20;8.13;;;;;;;-1.54;88.01;101115.23;1752254;81;21042;-43
2021/03/04 04:51:03;;;;;;;16.23;8.28;;;;;;;-1.51;87.98;101108.15;1749218;81;21030;-44
2021/03/04 04:53:32;;;;;;;16.62;8.25;;;;;;;-1.49;87.89;101107.81;1752232;81;20991;-44
2021/03/04 04:55:59;;;;;;;11.43;7.40;;;;;;;-1.48;87.80;101097.70;1752307;81;21131;-45
2021/03/04 04:58:27;;;;;;;18.80;8.28;;;;;;;-1.43;87.74;101100.44;1752273;81;21352;-44
2021/03/04 05:00:55;;;;;;;14.47;8.23;;;;;;;-1.41;87.58;101088.66;1752180;81;21002;-45
2021/03/04 05:03:23;;;;;;;23.80;7.62;;;;;;;-1.35;87.59;101088.05;1752317;81;20982;-44
2021/03/04 05:05:51;;;;;;;18.90;7.67;;;;;;;-1.26;87.29;101087.53;1752280;81;21033;-44
2021/03/04 05:08:19;;;;;;;15.25;7.62;;;;;;;-1.18;87.23;101088.30;1752339;81;20959;-43
2021/03/04 05:10:48;;;;;;;13.58;7.90;;;;;;;-1.11;86.79;101083.48;1752356;81;21168;-42
2021/03/04 05:13:16;;;;;;;17.48;7.53;;;;;;;-1.03;86.83;101080.41;1752198;81;20987;-43
2021/03/04 05:15:44;;;;;;;9.53;6.78;;;;;;;-0.94;86.34;101089.22;1752203;81;20979;-43
2021/03/04 05:18:12;;;;;;;19.80;7.80;;;;;;;-0.87;86.31;101078.09;1752313;81;21666;-44
2021/03/04 05:20:41;;;;;;;16.00;7.55;;;;;;;-0.80;85.96;101083.40;1752277;81;21022;-44
2021/03/04 05:23:09;;;;;;;14.85;7.40;;;;;;;-0.77;85.59;101083.52;1752254;81;21207;-42
2021/03/04 05:25:37;;;;;;;14.47;8.18;;;;;;;-0.73;85.46;101077.34;1752193;81;21014;-44
2021/03/04 05:28:06;;;;;;;15.05;7.42;;;;;;;-0.71;85.19;101074.84;1752182;81;20919;-44
2021/03/04 05:30:34;;;;;;;10.98;7.62;;;;;;;-0.65;85.13;101072.94;1752214;81;20958;-43
2021/03/04 05:33:03;;;;;;;17.48;9.23;;;;;;;-0.63;84.71;101062.02;1752179;81;20982;-44
2021/03/04 05:35:31;;;;;;;12.78;7.55;;;;;;;-0.59;84.58;101054.08;1752240;81;21341;-45
2021/03/04 05:37:59;;;;;;;13.45;7.55;;;;;;;-0.55;84.37;101061.02;1752160;81;20959;-42
2021/03/04 05:40:27;;;;;;;13.40;8.08;;;;;;;-0.53;84.14;101052.17;1752265;81;20908;-42
2021/03/04 05:42:57;;;;;;;13.55;8.50;;;;;;;-0.48;84.06;101049.39;1752180;80;20915;-43
2021/03/04 05:45:25;;;;;;;14.15;7.97;;;;;;;-0.40;84.21;101048.41;1752218;81;21081;-43
2021/03/04 05:47:53;;;;;;;13.40;8.55;;;;;;;-0.41;83.96;101048.80;1745100;81;21380;-43
2021/03/04 05:50:23;;;;;;;17.95;8.60;;;;;;;-0.37;83.83;101049.39;1743926;82;21014;-42
2021/03/04 05:52:59;;;;;;;17.77;8.50;;;;;;;-0.27;83.93;101039.53;1744056;82;20923;-43
2021/03/04 05:55:27;;;;;;;13.80;8.50;;;;;;;-0.22;83.73;101042.70;1743510;82;20915;-43
2021/03/04 05:57:55;;;;;;;12.98;8.40;;;;;;;-0.15;83.22;101037.01;1744087;82;20951;-42
2021/03/04 06:00:24;;;;;;;17.12;9.13;;;;;;;-0.10;82.80;101038.84;1744029;82;21221;-42
2021/03/04 06:02:52;;;;;;;14.25;8.73;;;;;;;-0.04;82.83;101036.11;1743969;82;20964;-43
2021/03/04 06:05:20;;;;;;;17.02;8.70;;;;;;;0.03;82.73;101024.85;1743993;82;21580;-44
2021/03/04 06:07:49;;;;;;;11.63;8.03;;;;;;;0.07;82.44;101019.05;1744011;82;21078;-42
2021/03/04 06:10:17;;;;;;;18.25;8.78;;;;;;;0.11;82.44;101011.57;1744045;82;21047;-42
2021/03/04 06:12:45;;;;;;;12.60;7.85;;;;;;;0.17;82.32;101003.28;1744025;82;21198;-44
2021/03/04 06:15:13;;;;;;;16.37;9.03;;;;;;;0.23;82.09;101012.39;1743932;82;21042;-43
2021/03/04 06:17:56;;;;;;;13.35;8.60;;;;;;;0.29;81.78;101013.00;1743959;82;21031;-44
2021/03/04 06:20:42;;;;;;;15.90;8.03;;;;;;;0.36;81.75;101011.50;1744021;82;21136;-43
2021/03/04 06:23:10;;;;;;;12.88;8.78;;;;;;;0.42;81.10;101005.35;1744178;82;21022;-43
2021/03/04 06:25:38;;;;;;;15.98;8.13;;;;;;;0.48;81.01;100999.17;1743912;82;21343;-44
2021/03/04 06:28:06;;;;;;;13.45;8.40;;;;;;;0.54;80.81;100998.08;1743921;82;21023;-45
2021/03/04 06:30:40;;;;;;;15.35;8.35;;;;;;;0.64;80.79;100986.92;1743975;82;21022;-44
2021/03/04 06:33:10;;;;;;;19.45;8.40;;;;;;;0.66;80.20;100986.13;1744058;82;20935;-42
2021/03/04 06:35:41;;;;;;;16.50;9.38;;;;;;;0.74;79.77;100982.55;1744016;82;21074;-42
2021/03/04 06:38:20;;;;;;;14.95;8.70;;;;;;;0.79;79.81;100972.50;1744038;82;21314;-45
2021/03/04 06:40:49;;;;;;;12.58;7.87;;;;;;;0.86;79.62;100954.02;1743885;81;20987;-44
2021/03/04 06:43:30;;;;;;;18.23;9.50;;;;;;;0.94;79.51;100949.99;1743989;82;21098;-44
2021/03/04 06:46:07;;;;;;;18.07;8.98;;;;;;;1.03;79.24;100949.39;1743916;82;20935;-42
2021/03/04 06:48:35;;;;;;;14.07;8.60;;;;;;;1.08;78.67;100941.46;1743946;82;20923;-43
2021/03/04 06:51:05;;;;;;;12.73;7.87;;;;;;;1.17;78.08;100940.86;1744061;82;22382;-43
2021/03/04 06:53:33;;;;;;;15.13;8.73;;;;;;;1.25;78.08;100937.25;1743900;82;21050;-45
2021/03/04 06:56:04;;;;;;;15.88;8.48;;;;;;;1.32;78.02;100934.47;1743898;82;20959;-44
2021/03/04 06:58:38;;;;;;;14.55;7.65;;;;;;;1.39;77.82;100927.02;1744048;82;20962;-43
2021/03/04 07:03:19;;;;;;;14.43;8.35;;;;;;;1.61;76.69;100924.16;1776807;78;22403;-43
2021/03/04 07:05:47;;;;;;;13.68;9.03;;;;;;;1.66;76.69;100923.86;1749496;82;21031;-42
2021/03/04 07:08:15;;;;;;;11.57;7.47;;;;;;;1.73;76.09;100916.80;1749488;82;21391;-43
2021/03/04 07:10:43;;;;;;;17.20;7.97;;;;;;;1.82;76.38;100910.67;1749413;82;21004;-43
2021/03/04 07:13:12;;;;;;;27.85;7.97;;;;;;;1.95;75.79;100904.17;1749393;80;20959;-44
2021/03/04 07:15:39;;;;;;;14.58;7.65;;;;;;;2.05;74.43;100893.77;1692255;82;21109;-44
2021/03/04 07:18:08;;;;;;;14.53;8.13;;;;;;;2.10;74.24;100889.62;1749470;82;20951;-45
2021/03/04 07:20:36;;;;;;;13.25;7.67;;;;;;;2.15;73.86;100889.74;1720398;82;21270;-45
2021/03/04 07:23:06;;;;;;;13.48;7.40;;;;;;;2.21;73.79;100878.38;1749298;82;21492;-43
2021/03/04 07:25:35;;;;;;;15.88;7.78;;;;;;;2.33;73.55;100875.64;1749450;81;21035;-44
2021/03/04 07:28:04;;;;;;;13.08;8.18;;;;;;;2.41;73.34;100872.86;1720612;82;21102;-46
2021/03/04 07:30:33;;;;;;;18.17;9.10;;;;;;;2.43;72.86;100862.25;1749387;82;21078;-44
2021/03/04 07:33:01;;;;;;;15.03;7.80;;;;;;;2.48;72.25;100860.66;1749412;82;21267;-44
2021/03/04 07:35:30;;;;;;;14.30;8.38;;;;;;;2.54;72.77;100854.39;1749331;82;20924;-44
2021/03/04 07:37:58;;;;;;;21.05;8.68;;;;;;;2.64;72.34;100855.84;1749455;82;20947;-46
2021/03/04 07:40:26;;;;;;;15.75;8.75;;;;;;;2.75;71.55;100850.55;1749321;82;20951;-44
2021/03/04 07:43:06;;;;;;;12.33;8.13;;;;;;;2.86;71.40;100840.10;1723060;82;20998;-46
2021/03/04 07:45:36;;;;;;;18.77;8.43;;;;;;;2.93;71.13;100840.25;1719537;82;21209;-46
2021/03/04 07:48:08;;;;;;;15.58;7.90;;;;;;;2.95;70.86;100832.19;1669557;83;21568;-45
2021/03/04 07:50:36;;;;;;;13.58;8.68;;;;;;;3.03;71.01;100830.63;1691652;83;20959;-44
2021/03/04 07:53:06;;;;;;;15.43;8.73;;;;;;;3.09;70.77;100828.60;1715786;83;20947;-45
2021/03/04 07:55:38;;;;;;;20.95;9.05;;;;;;;3.21;70.92;100811.34;1668847;83;20967;-42
2021/03/04 07:58:16;;;;;;;13.60;8.40;;;;;;;3.31;70.26;100808.09;1719616;83;21505;-42
2021/03/04 08:00:45;;;;;;;14.95;8.45;;;;;;;3.38;69.66;100809.91;1719538;82;21046;-45
2021/03/04 08:03:13;;;;;;;12.80;8.83;;;;;;;3.47;69.46;100795.56;1720140;82;21038;-43
2021/03/04 08:05:43;;;;;;;13.15;8.70;;;;;;;3.59;68.75;100792.77;1720309;83;20947;-44
2021/03/04 08:08:22;;;;;;;15.80;8.00;;;;;;;3.66;69.13;100800.55;1720324;83;21000;-45
2021/03/04 08:10:56;;;;;;;14.33;7.87;;;;;;;3.79;68.74;100799.91;1720290;83;21282;-44
2021/03/04 08:13:36;;;;;;;20.77;8.98;;;;;;;3.92;68.24;100797.52;1720040;83;21050;-42
2021/03/04 08:16:15;;;;;;;13.68;8.85;;;;;;;4.07;67.60;100791.34;1719725;83;20959;-44
2021/03/04 08:18:57;;;;;;;17.48;8.33;;;;;;;4.15;67.35;100788.45;1719291;83;21061;-44
2021/03/04 08:21:25;;;;;;;12.00;7.87;;;;;;;4.28;66.31;100792.03;1719838;82;21070;-42
2021/03/04 08:23:53;;;;;;;17.37;8.55;;;;;;;4.39;66.09;100793.86;1719840;83;21212;-45
2021/03/04 08:26:28;;;;;;;12.60;7.67;;;;;;;4.45;66.32;100788.39;1719732;83;21093;-45
2021/03/04 08:29:10;;;;;;;14.78;8.35;;;;;;;4.52;65.85;100782.92;1719816;83;21062;-43
2021/03/04 08:31:49;;;;;;;14.30;7.83;;;;;;;4.63;65.77;100783.45;1719758;82;21010;-44
2021/03/04 08:34:17;;;;;;;14.30;8.60;;;;;;;4.82;65.23;100787.95;1719965;83;21185;-45
2021/03/04 08:36:49;;;;;;;12.73;7.53;;;;;;;4.96;65.26;100780.40;1719813;83;21364;-44
2021/03/04 08:39:19;;;;;;;12.50;7.45;;;;;;;5.07;64.89;100786.92;1719654;83;21046;-47
2021/03/04 08:41:47;;;;;;;15.45;8.25;;;;;;;5.26;64.37;100779.40;1719698;82;21038;-45
2021/03/04 08:44:17;;;;;;;10.40;7.35;;;;;;;5.37;64.33;100775.20;1719734;82;21042;-43
2021/03/04 08:46:49;;;;;;;21.97;7.58;;;;;;;5.55;63.84;100778.33;1719855;83;21042;-44
2021/03/04 08:49:21;;;;;;;15.28;7.25;;;;;;;5.68;62.17;100770.28;1719892;83;21434;-44
2021/03/04 08:51:49;;;;;;;14.85;7.17;;;;;;;5.67;61.99;100769.01;1719784;83;20971;-43
2021/03/04 08:54:26;;;;;;;18.52;7.03;;;;;;;5.65;61.34;100765.13;1719792;83;21039;-44
2021/03/04 08:57:02;;;;;;;25.95;7.17;;;;;;;5.64;61.71;100775.41;1719459;83;21022;-43
2021/03/04 08:59:29;;;;;;;10.80;6.55;;;;;;;5.67;61.19;100763.43;1719934;83;22674;-45
2021/03/04 09:01:59;;;;;;;14.85;7.72;;;;;;;5.73;61.11;100757.07;1717088;82;21214;-45
2021/03/04 09:04:28;;;;;;;17.67;7.12;;;;;;;5.90;60.89;100747.30;1706224;84;20979;-43
2021/03/04 09:06:56;;;;;;;10.88;6.85;;;;;;;6.01;60.23;100752.53;1706262;84;21153;-44
2021/03/04 09:09:27;;;;;;;10.98;7.08;;;;;;;6.01;60.23;100752.53;1706265;84;20928;-43
2021/03/04 09:11:57;;;;;;;12.10;6.12;;;;;;;6.33;59.02;100736.41;1706315;84;21133;-43
2021/03/04 09:14:32;;;;;;;35.70;7.58;;;;;;;6.33;59.02;100736.41;1706336;83;21359;-45
2021/03/04 09:17:00;;;;;;;25.67;5.93;;;;;;;6.42;58.37;100730.42;1706520;83;21600;-43
2021/03/04 09:19:35;;;;;;;13.80;6.92;;;;;;;6.42;58.07;100732.98;1706185;83;21639;-46
2021/03/04 09:22:05;;;;;;;19.02;6.55;;;;;;;6.42;58.07;100732.98;1706183;84;21568;-44
2021/03/04 09:24:33;;;;;;;13.08;6.92;;;;;;;6.41;58.07;100732.15;1706262;83;21608;-45
2021/03/04 09:27:05;;;;;;;18.95;8.20;;;;;;;6.47;58.35;100719.30;1706254;84;21495;-43
2021/03/04 09:29:40;;;;;;;12.13;6.53;;;;;;;6.58;57.67;100729.62;1706076;84;21023;-46
2021/03/04 09:32:09;;;;;;;31.00;7.10;;;;;;;6.56;58.21;100724.90;1706300;82;21003;-44
2021/03/04 09:34:43;;;;;;;17.85;6.42;;;;;;;6.76;57.12;100713.80;1706238;84;20956;-44
2021/03/04 09:37:26;;;;;;;11.70;6.05;;;;;;;6.76;57.12;100713.80;1706267;83;21079;-43
2021/03/04 09:39:55;;;;;;;16.73;6.70;;;;;;;6.88;57.01;100713.80;1688156;84;21465;-44
2021/03/04 09:42:34;;;;;;;14.87;7.47;;;;;;;6.93;57.03;100707.38;1706117;82;20991;-45
2021/03/04 09:45:09;;;;;;;24.37;8.50;;;;;;;6.93;57.03;100707.38;1706232;83;21019;-44
2021/03/04 09:47:45;;;;;;;16.10;8.85;;;;;;;7.00;56.74;100682.06;1706545;84;21611;-44
2021/03/04 09:50:23;;;;;;;17.87;9.15;;;;;;;6.99;57.18;100678.22;1706422;82;20975;-42
2021/03/04 09:53:02;;;;;;;22.73;9.28;;;;;;;7.06;57.13;100683.78;1706325;84;21165;-43
2021/03/04 09:55:40;;;;;;;26.73;9.00;;;;;;;7.22;56.81;100658.04;1706150;84;20961;-43
2021/03/04 09:58:23;;;;;;;14.63;8.98;;;;;;;7.25;56.78;100674.77;1889954;75;22604;-43
2021/03/04 10:01:00;;;;;;;18.80;9.38;;;;;;;7.18;57.70;100670.89;1861028;77;21567;-46
2021/03/04 10:03:35;;;;;;;22.17;10.30;;;;;;;7.35;57.47;100664.03;1820430;78;21137;-48
2021/03/04 10:06:06;;;;;;;19.70;10.58;;;;;;;7.47;57.08;100654.55;1823022;78;20939;-45
2021/03/04 10:08:40;;;;;;;26.85;12.13;;;;;;;7.45;57.10;100640.83;1823003;78;21011;-46
2021/03/04 10:11:09;;;;;;;18.23;11.12;;;;;;;7.42;57.38;100635.66;1822973;78;21106;-45
2021/03/04 10:13:37;;;;;;;17.80;11.18;;;;;;;7.39;57.57;100636.95;1790697;78;20936;-45
2021/03/04 10:16:14;;;;;;;23.80;10.80;;;;;;;7.46;57.86;100650.27;1822921;78;21358;-44
2021/03/04 10:18:46;;;;;;;28.87;12.28;;;;;;;7.58;57.96;100627.48;1822925;78;20944;-43
2021/03/04 10:21:15;;;;;;;25.00;12.30;;;;;;;7.81;57.50;100634.23;1822740;78;21040;-45
2021/03/04 10:23:48;;;;;;;42.75;12.03;;;;;;;7.95;56.90;100614.84;1822933;78;20928;-43
2021/03/04 10:26:16;;;;;;;24.82;12.15;;;;;;;7.97;57.07;100615.72;1823063;78;20925;-44
2021/03/04 10:28:44;;;;;;;25.25;12.50;;;;;;;7.97;57.10;100601.55;1822996;78;21211;-45
2021/03/04 10:31:12;;;;;;;26.55;12.03;;;;;;;8.00;57.48;100594.20;1822827;78;21007;-46
2021/03/04 10:33:41;;;;;;;19.70;11.30;;;;;;;8.13;57.47;100596.28;1822923;78;21032;-45
2021/03/04 10:36:11;;;;;;;19.15;11.33;;;;;;;8.25;57.07;100587.61;1822824;78;21098;-45
2021/03/04 10:38:39;;;;;;;20.23;11.97;;;;;;;8.18;57.36;100581.21;1822926;78;20957;-46
2021/03/04 10:41:09;;;;;;;19.25;11.33;;;;;;;8.12;57.72;100579.09;1819025;78;21200;-46
2021/03/04 10:43:38;;;;;;;25.88;12.15;;;;;;;8.24;57.78;100576.88;1790534;80;21086;-45
2021/03/04 10:46:06;;;;;;;21.40;11.95;;;;;;;8.34;58.00;100572.09;1790534;80;20988;-44
2021/03/04 10:48:35;;;;;;;20.90;11.28;;;;;;;8.48;57.17;100570.25;1790573;80;21079;-44
2021/03/04 10:51:03;;;;;;;22.10;11.45;;;;;;;8.47;57.38;100571.56;1790642;80;20928;-46
2021/03/04 10:53:32;;;;;;;21.95;12.05;;;;;;;8.70;57.59;100552.45;1790627;80;21356;-44
2021/03/04 10:56:00;;;;;;;22.52;11.73;;;;;;;8.91;56.51;100555.29;1790558;80;21035;-44
2021/03/04 10:58:28;;;;;;;19.75;11.55;;;;;;;9.06;55.78;100544.78;1799168;79;21049;-43
2021/03/04 11:00:56;;;;;;;22.50;12.10;;;;;;;9.26;55.63;100542.88;1799480;79;21070;-45
2021/03/04 11:03:25;;;;;;;30.15;14.65;;;;;;;9.37;55.00;100538.42;1799492;79;20897;-46
2021/03/04 11:05:52;;;;;;;27.60;14.98;;;;;;;9.34;54.82;100523.80;1799535;79;21206;-44
2021/03/04 11:08:21;;;;;;;26.57;15.00;;;;;;;9.30;54.74;100531.17;1799216;79;20995;-47
2021/03/04 11:10:49;;;;;;;25.75;13.45;;;;;;;9.31;55.08;100518.67;1798912;79;21059;-44
2021/03/04 11:13:17;;;;;;;22.20;13.53;;;;;;;9.43;56.03;100515.09;1798975;79;21145;-44
2021/03/04 11:15:45;;;;;;;24.50;13.65;;;;;;;9.48;55.67;100509.45;1799011;79;21051;-44
2021/03/04 11:18:13;;;;;;;24.45;12.82;;;;;;;9.57;56.23;100511.48;1798978;79;21378;-46
2021/03/04 11:20:42;;;;;;;25.62;13.72;;;;;;;9.73;55.20;100495.32;1798877;79;21003;-44
2021/03/04 11:23:10;;;;;;;39.53;15.38;;;;;;;9.71;55.33;100498.37;1798948;79;21050;-44
2021/03/04 11:25:40;;;;;;;32.60;14.65;;;;;;;9.55;55.92;100488.23;1795210;79;20944;-50
2021/03/04 11:28:08;;;;;;;26.95;15.50;;;;;;;9.52;56.08;100489.57;1798976;79;20975;-45
2021/03/04 11:30:36;;;;;;;23.95;15.63;;;;;;;9.46;56.47;100485.33;1798894;79;22134;-45
2021/03/04 11:33:06;;;;;;;36.42;15.48;;;;;;;9.37;56.50;100474.29;1798860;79;21079;-45
2021/03/04 11:35:35;;;;;;;23.87;13.65;;;;;;;9.39;56.41;100475.13;1798965;79;20948;-44